sensor_id;sensor_type;location;lat;lon;timestamp;P1;durP1;ratioP1;P2;durP2;ratioP2
1479;SDS011;732;51.698;4.886;2023-04-03T00:01:23;5.10;;;3.70;;
1479;SDS011;732;51.698;4.886;2023-04-03T00:03:52;5.80;;;3.90;;
1479;SDS011;732;51.698;4.886;2023-04-03T00:06:22;6.40;;;3.80;;
1479;SDS011;732;51.698;4.886;2023-04-03T00:08:53;7.37;;;4.30;;
1479;SDS011;732;51.698;4.886;2023-04-03T00:11:22;8.13;;;3.80;;
1479;SDS011;732;51.698;4.886;2023-04-03T00:13:51;5.70;;;3.80;;
1479;SDS011;732;51.698;4.886;2023-04-03T00:16:20;7.83;;;3.33;;
1479;SDS011;732;51.698;4.886;2023-04-03T00:18:48;6.80;;;3.40;;
1479;SDS011;732;51.698;4.886;2023-04-03T00:21:17;6.90;;;3.70;;
1479;SDS011;732;51.698;4.886;2023-04-03T00:23:46;5.53;;;3.27;;
1479;SDS011;732;51.698;4.886;2023-04-03T00:26:15;5.43;;;3.70;;
1479;SDS011;732;51.698;4.886;2023-04-03T00:28:44;7.27;;;3.93;;
1479;SDS011;732;51.698;4.886;2023-04-03T00:31:13;5.37;;;3.30;;
1479;SDS011;732;51.698;4.886;2023-04-03T00:33:43;5.73;;;3.93;;
1479;SDS011;732;51.698;4.886;2023-04-03T00:36:11;8.70;;;3.90;;
1479;SDS011;732;51.698;4.886;2023-04-03T00:38:41;6.50;;;3.77;;
1479;SDS011;732;51.698;4.886;2023-04-03T00:41:11;7.23;;;4.00;;
1479;SDS011;732;51.698;4.886;2023-04-03T00:43:39;6.10;;;4.27;;
1479;SDS011;732;51.698;4.886;2023-04-03T00:46:07;7.77;;;5.17;;
1479;SDS011;732;51.698;4.886;2023-04-03T00:48:37;7.60;;;3.83;;
1479;SDS011;732;51.698;4.886;2023-04-03T00:51:11;8.03;;;4.07;;
1479;SDS011;732;51.698;4.886;2023-04-03T00:53:44;9.57;;;3.70;;
1479;SDS011;732;51.698;4.886;2023-04-03T00:56:19;10.23;;;3.70;;
1479;SDS011;732;51.698;4.886;2023-04-03T00:58:53;8.00;;;3.83;;
1479;SDS011;732;51.698;4.886;2023-04-03T01:01:27;6.70;;;4.07;;
1479;SDS011;732;51.698;4.886;2023-04-03T01:03:58;6.57;;;3.50;;
1479;SDS011;732;51.698;4.886;2023-04-03T01:06:30;9.80;;;4.00;;
1479;SDS011;732;51.698;4.886;2023-04-03T01:09:05;5.17;;;3.50;;
1479;SDS011;732;51.698;4.886;2023-04-03T01:11:36;7.10;;;3.90;;
1479;SDS011;732;51.698;4.886;2023-04-03T01:14:05;9.03;;;3.77;;
1479;SDS011;732;51.698;4.886;2023-04-03T01:16:34;5.33;;;3.90;;
1479;SDS011;732;51.698;4.886;2023-04-03T01:19:02;6.70;;;3.70;;
1479;SDS011;732;51.698;4.886;2023-04-03T01:21:41;7.00;;;4.10;;
1479;SDS011;732;51.698;4.886;2023-04-03T01:24:44;5.77;;;3.67;;
1479;SDS011;732;51.698;4.886;2023-04-03T01:27:15;6.60;;;4.00;;
1479;SDS011;732;51.698;4.886;2023-04-03T01:29:44;6.23;;;3.60;;
1479;SDS011;732;51.698;4.886;2023-04-03T01:32:14;5.47;;;3.50;;
1479;SDS011;732;51.698;4.886;2023-04-03T01:34:45;5.87;;;4.00;;
1479;SDS011;732;51.698;4.886;2023-04-03T01:37:14;5.20;;;3.70;;
1479;SDS011;732;51.698;4.886;2023-04-03T01:39:42;7.70;;;4.30;;
1479;SDS011;732;51.698;4.886;2023-04-03T01:42:11;8.50;;;3.00;;
1479;SDS011;732;51.698;4.886;2023-04-03T01:44:42;8.03;;;3.57;;
1479;SDS011;732;51.698;4.886;2023-04-03T01:47:11;8.23;;;4.90;;
1479;SDS011;732;51.698;4.886;2023-04-03T01:49:41;9.00;;;4.77;;
1479;SDS011;732;51.698;4.886;2023-04-03T01:52:10;6.60;;;3.80;;
1479;SDS011;732;51.698;4.886;2023-04-03T01:54:39;8.50;;;3.97;;
1479;SDS011;732;51.698;4.886;2023-04-03T01:57:07;5.80;;;3.70;;
1479;SDS011;732;51.698;4.886;2023-04-03T01:59:37;6.47;;;3.77;;
1479;SDS011;732;51.698;4.886;2023-04-03T02:02:05;6.80;;;3.77;;
1479;SDS011;732;51.698;4.886;2023-04-03T02:04:35;8.80;;;4.20;;
1479;SDS011;732;51.698;4.886;2023-04-03T02:07:05;7.27;;;4.37;;
1479;SDS011;732;51.698;4.886;2023-04-03T02:09:34;8.70;;;4.50;;
1479;SDS011;732;51.698;4.886;2023-04-03T02:12:02;5.40;;;4.07;;
1479;SDS011;732;51.698;4.886;2023-04-03T02:14:32;10.57;;;4.70;;
1479;SDS011;732;51.698;4.886;2023-04-03T02:17:00;5.70;;;4.20;;
1479;SDS011;732;51.698;4.886;2023-04-03T02:19:35;5.47;;;3.93;;
1479;SDS011;732;51.698;4.886;2023-04-03T02:22:05;9.77;;;4.50;;
1479;SDS011;732;51.698;4.886;2023-04-03T02:24:34;9.93;;;5.00;;
1479;SDS011;732;51.698;4.886;2023-04-03T02:27:05;8.60;;;4.90;;
1479;SDS011;732;51.698;4.886;2023-04-03T02:29:34;8.00;;;4.70;;
1479;SDS011;732;51.698;4.886;2023-04-03T02:32:03;7.13;;;5.00;;
1479;SDS011;732;51.698;4.886;2023-04-03T02:34:34;8.53;;;5.27;;
1479;SDS011;732;51.698;4.886;2023-04-03T02:37:02;8.10;;;4.23;;
1479;SDS011;732;51.698;4.886;2023-04-03T02:39:32;6.20;;;4.80;;
1479;SDS011;732;51.698;4.886;2023-04-03T02:42:01;8.67;;;4.50;;
1479;SDS011;732;51.698;4.886;2023-04-03T02:44:30;10.03;;;4.60;;
1479;SDS011;732;51.698;4.886;2023-04-03T02:46:59;10.20;;;4.90;;
1479;SDS011;732;51.698;4.886;2023-04-03T02:49:27;7.60;;;5.23;;
1479;SDS011;732;51.698;4.886;2023-04-03T02:51:56;12.50;;;5.30;;
1479;SDS011;732;51.698;4.886;2023-04-03T02:54:25;10.17;;;5.50;;
1479;SDS011;732;51.698;4.886;2023-04-03T02:57:00;6.53;;;4.77;;
1479;SDS011;732;51.698;4.886;2023-04-03T02:59:28;11.93;;;5.10;;
1479;SDS011;732;51.698;4.886;2023-04-03T03:01:57;8.43;;;4.93;;
1479;SDS011;732;51.698;4.886;2023-04-03T03:04:25;8.70;;;5.67;;
1479;SDS011;732;51.698;4.886;2023-04-03T03:06:55;10.03;;;4.97;;
1479;SDS011;732;51.698;4.886;2023-04-03T03:09:24;7.33;;;5.70;;
1479;SDS011;732;51.698;4.886;2023-04-03T03:11:54;14.63;;;5.80;;
1479;SDS011;732;51.698;4.886;2023-04-03T03:14:22;9.33;;;5.23;;
1479;SDS011;732;51.698;4.886;2023-04-03T03:16:51;9.93;;;5.70;;
1479;SDS011;732;51.698;4.886;2023-04-03T03:19:19;10.40;;;5.40;;
1479;SDS011;732;51.698;4.886;2023-04-03T03:21:48;8.90;;;5.00;;
1479;SDS011;732;51.698;4.886;2023-04-03T03:24:17;13.20;;;5.20;;
1479;SDS011;732;51.698;4.886;2023-04-03T03:26:48;9.37;;;5.67;;
1479;SDS011;732;51.698;4.886;2023-04-03T03:29:16;7.30;;;5.40;;
1479;SDS011;732;51.698;4.886;2023-04-03T03:31:45;8.73;;;5.53;;
1479;SDS011;732;51.698;4.886;2023-04-03T03:34:13;8.13;;;5.50;;
1479;SDS011;732;51.698;4.886;2023-04-03T03:36:42;8.83;;;5.33;;
1479;SDS011;732;51.698;4.886;2023-04-03T03:39:12;9.23;;;5.20;;
1479;SDS011;732;51.698;4.886;2023-04-03T03:41:41;12.53;;;5.93;;
1479;SDS011;732;51.698;4.886;2023-04-03T03:44:11;7.83;;;4.90;;
1479;SDS011;732;51.698;4.886;2023-04-03T03:46:40;14.10;;;5.40;;
1479;SDS011;732;51.698;4.886;2023-04-03T03:49:09;12.07;;;5.50;;
1479;SDS011;732;51.698;4.886;2023-04-03T03:51:39;9.70;;;5.40;;
1479;SDS011;732;51.698;4.886;2023-04-03T03:54:09;8.10;;;5.47;;
1479;SDS011;732;51.698;4.886;2023-04-03T03:56:38;7.60;;;4.83;;
1479;SDS011;732;51.698;4.886;2023-04-03T03:59:07;13.57;;;5.57;;
1479;SDS011;732;51.698;4.886;2023-04-03T04:01:37;13.33;;;4.77;;
1479;SDS011;732;51.698;4.886;2023-04-03T04:04:07;10.10;;;5.43;;
1479;SDS011;732;51.698;4.886;2023-04-03T04:06:36;8.20;;;5.57;;
1479;SDS011;732;51.698;4.886;2023-04-03T04:09:08;12.13;;;5.97;;
1479;SDS011;732;51.698;4.886;2023-04-03T04:11:37;14.23;;;6.70;;
1479;SDS011;732;51.698;4.886;2023-04-03T04:14:08;9.20;;;5.30;;
1479;SDS011;732;51.698;4.886;2023-04-03T04:16:41;13.17;;;5.53;;
1479;SDS011;732;51.698;4.886;2023-04-03T04:19:15;11.93;;;6.70;;
1479;SDS011;732;51.698;4.886;2023-04-03T04:21:44;11.60;;;6.13;;
1479;SDS011;732;51.698;4.886;2023-04-03T04:24:13;11.50;;;5.77;;
1479;SDS011;732;51.698;4.886;2023-04-03T04:26:42;12.40;;;6.83;;
1479;SDS011;732;51.698;4.886;2023-04-03T04:29:12;12.30;;;6.30;;
1479;SDS011;732;51.698;4.886;2023-04-03T04:31:44;12.70;;;6.37;;
1479;SDS011;732;51.698;4.886;2023-04-03T04:34:13;10.50;;;5.97;;
1479;SDS011;732;51.698;4.886;2023-04-03T04:36:42;9.40;;;6.23;;
1479;SDS011;732;51.698;4.886;2023-04-03T04:39:11;12.43;;;6.30;;
1479;SDS011;732;51.698;4.886;2023-04-03T04:41:40;9.00;;;6.13;;
1479;SDS011;732;51.698;4.886;2023-04-03T04:44:08;10.33;;;5.93;;
1479;SDS011;732;51.698;4.886;2023-04-03T04:46:37;9.47;;;6.10;;
1479;SDS011;732;51.698;4.886;2023-04-03T04:49:08;10.60;;;5.47;;
1479;SDS011;732;51.698;4.886;2023-04-03T04:51:37;11.30;;;6.57;;
1479;SDS011;732;51.698;4.886;2023-04-03T04:54:21;12.80;;;6.40;;
1479;SDS011;732;51.698;4.886;2023-04-03T04:56:50;10.63;;;6.33;;
1479;SDS011;732;51.698;4.886;2023-04-03T04:59:19;8.80;;;5.70;;
1479;SDS011;732;51.698;4.886;2023-04-03T05:01:50;9.07;;;6.77;;
1479;SDS011;732;51.698;4.886;2023-04-03T05:04:20;9.63;;;6.77;;
1479;SDS011;732;51.698;4.886;2023-04-03T05:06:54;10.73;;;6.50;;
1479;SDS011;732;51.698;4.886;2023-04-03T05:09:26;10.90;;;6.57;;
1479;SDS011;732;51.698;4.886;2023-04-03T05:11:55;11.67;;;7.10;;
1479;SDS011;732;51.698;4.886;2023-04-03T05:14:27;9.60;;;6.20;;
1479;SDS011;732;51.698;4.886;2023-04-03T05:17:00;11.00;;;6.03;;
1479;SDS011;732;51.698;4.886;2023-04-03T05:19:33;10.87;;;6.50;;
1479;SDS011;732;51.698;4.886;2023-04-03T05:22:03;6.83;;;5.50;;
1479;SDS011;732;51.698;4.886;2023-04-03T05:24:32;13.03;;;6.97;;
1479;SDS011;732;51.698;4.886;2023-04-03T05:27:01;7.70;;;5.60;;
1479;SDS011;732;51.698;4.886;2023-04-03T05:29:32;11.80;;;6.10;;
1479;SDS011;732;51.698;4.886;2023-04-03T05:32:02;10.07;;;6.00;;
1479;SDS011;732;51.698;4.886;2023-04-03T05:34:33;10.93;;;6.27;;
1479;SDS011;732;51.698;4.886;2023-04-03T05:37:02;9.20;;;5.80;;
1479;SDS011;732;51.698;4.886;2023-04-03T05:39:32;12.67;;;6.10;;
1479;SDS011;732;51.698;4.886;2023-04-03T05:42:04;13.80;;;6.30;;
1479;SDS011;732;51.698;4.886;2023-04-03T05:44:33;12.37;;;5.97;;
1479;SDS011;732;51.698;4.886;2023-04-03T05:47:01;9.63;;;6.60;;
1479;SDS011;732;51.698;4.886;2023-04-03T05:49:30;12.40;;;6.47;;
1479;SDS011;732;51.698;4.886;2023-04-03T05:52:01;11.20;;;6.97;;
1479;SDS011;732;51.698;4.886;2023-04-03T05:54:31;16.30;;;7.10;;
1479;SDS011;732;51.698;4.886;2023-04-03T05:57:15;11.00;;;6.17;;
1479;SDS011;732;51.698;4.886;2023-04-03T05:59:45;8.93;;;5.47;;
1479;SDS011;732;51.698;4.886;2023-04-03T06:02:15;10.83;;;5.33;;
1479;SDS011;732;51.698;4.886;2023-04-03T06:04:48;12.17;;;5.57;;
1479;SDS011;732;51.698;4.886;2023-04-03T06:07:20;10.00;;;4.90;;
1479;SDS011;732;51.698;4.886;2023-04-03T06:09:53;12.27;;;4.77;;
1479;SDS011;732;51.698;4.886;2023-04-03T06:12:24;9.63;;;5.20;;
1479;SDS011;732;51.698;4.886;2023-04-03T06:14:55;9.50;;;4.60;;
1479;SDS011;732;51.698;4.886;2023-04-03T06:17:24;7.67;;;4.50;;
1479;SDS011;732;51.698;4.886;2023-04-03T06:19:53;9.30;;;4.50;;
1479;SDS011;732;51.698;4.886;2023-04-03T06:22:23;6.17;;;4.50;;
1479;SDS011;732;51.698;4.886;2023-04-03T06:24:56;6.43;;;4.10;;
1479;SDS011;732;51.698;4.886;2023-04-03T06:27:25;10.07;;;4.67;;
1479;SDS011;732;51.698;4.886;2023-04-03T06:29:53;7.23;;;4.57;;
1479;SDS011;732;51.698;4.886;2023-04-03T06:32:22;6.70;;;4.33;;
1479;SDS011;732;51.698;4.886;2023-04-03T06:34:51;8.07;;;4.00;;
1479;SDS011;732;51.698;4.886;2023-04-03T06:37:22;7.13;;;4.03;;
1479;SDS011;732;51.698;4.886;2023-04-03T06:39:55;7.70;;;4.67;;
1479;SDS011;732;51.698;4.886;2023-04-03T06:42:23;7.13;;;4.20;;
1479;SDS011;732;51.698;4.886;2023-04-03T06:45:18;8.20;;;3.30;;
1479;SDS011;732;51.698;4.886;2023-04-03T06:47:48;7.80;;;4.00;;
1479;SDS011;732;51.698;4.886;2023-04-03T06:50:17;5.27;;;3.90;;
1479;SDS011;732;51.698;4.886;2023-04-03T06:52:47;7.70;;;3.83;;
1479;SDS011;732;51.698;4.886;2023-04-03T06:55:15;6.90;;;3.93;;
1479;SDS011;732;51.698;4.886;2023-04-03T06:57:44;8.60;;;4.60;;
1479;SDS011;732;51.698;4.886;2023-04-03T07:00:13;7.57;;;3.20;;
1479;SDS011;732;51.698;4.886;2023-04-03T07:02:43;5.90;;;3.17;;
1479;SDS011;732;51.698;4.886;2023-04-03T07:05:12;6.30;;;3.63;;
1479;SDS011;732;51.698;4.886;2023-04-03T07:07:42;13.03;;;4.60;;
1479;SDS011;732;51.698;4.886;2023-04-03T07:10:11;6.80;;;2.90;;
1479;SDS011;732;51.698;4.886;2023-04-03T07:12:40;6.50;;;3.63;;
1479;SDS011;732;51.698;4.886;2023-04-03T07:15:10;6.13;;;3.50;;
1479;SDS011;732;51.698;4.886;2023-04-03T07:17:39;7.13;;;3.80;;
1479;SDS011;732;51.698;4.886;2023-04-03T07:20:08;7.83;;;3.40;;
1479;SDS011;732;51.698;4.886;2023-04-03T07:22:38;5.70;;;3.40;;
1479;SDS011;732;51.698;4.886;2023-04-03T07:25:07;6.13;;;3.77;;
1479;SDS011;732;51.698;4.886;2023-04-03T07:27:38;6.57;;;3.57;;
1479;SDS011;732;51.698;4.886;2023-04-03T07:30:07;6.63;;;3.70;;
1479;SDS011;732;51.698;4.886;2023-04-03T07:32:37;7.83;;;3.00;;
1479;SDS011;732;51.698;4.886;2023-04-03T07:35:06;6.03;;;3.73;;
1479;SDS011;732;51.698;4.886;2023-04-03T07:37:35;7.60;;;3.60;;
1479;SDS011;732;51.698;4.886;2023-04-03T07:40:04;8.83;;;3.90;;
1479;SDS011;732;51.698;4.886;2023-04-03T07:42:35;9.03;;;3.50;;
1479;SDS011;732;51.698;4.886;2023-04-03T07:45:05;6.40;;;3.50;;
1479;SDS011;732;51.698;4.886;2023-04-03T07:47:35;8.80;;;3.77;;
1479;SDS011;732;51.698;4.886;2023-04-03T07:50:03;6.50;;;3.67;;
1479;SDS011;732;51.698;4.886;2023-04-03T07:52:33;5.43;;;3.50;;
1479;SDS011;732;51.698;4.886;2023-04-03T07:55:02;7.30;;;2.83;;
1479;SDS011;732;51.698;4.886;2023-04-03T07:57:32;6.87;;;3.23;;
1479;SDS011;732;51.698;4.886;2023-04-03T08:00:01;7.33;;;3.17;;
1479;SDS011;732;51.698;4.886;2023-04-03T08:02:38;6.83;;;3.30;;
1479;SDS011;732;51.698;4.886;2023-04-03T08:05:07;7.83;;;3.73;;
1479;SDS011;732;51.698;4.886;2023-04-03T08:07:36;10.20;;;4.97;;
1479;SDS011;732;51.698;4.886;2023-04-03T08:10:06;8.43;;;5.50;;
1479;SDS011;732;51.698;4.886;2023-04-03T08:12:35;6.13;;;3.00;;
1479;SDS011;732;51.698;4.886;2023-04-03T08:15:05;5.70;;;3.10;;
1479;SDS011;732;51.698;4.886;2023-04-03T08:17:40;8.70;;;3.53;;
1479;SDS011;732;51.698;4.886;2023-04-03T08:20:09;8.33;;;3.63;;
1479;SDS011;732;51.698;4.886;2023-04-03T08:22:44;6.80;;;3.40;;
1479;SDS011;732;51.698;4.886;2023-04-03T08:25:13;8.70;;;3.47;;
1479;SDS011;732;51.698;4.886;2023-04-03T08:27:44;6.10;;;3.20;;
1479;SDS011;732;51.698;4.886;2023-04-03T08:30:18;8.10;;;3.43;;
1479;SDS011;732;51.698;4.886;2023-04-03T08:32:48;4.63;;;3.00;;
1479;SDS011;732;51.698;4.886;2023-04-03T08:35:21;9.10;;;3.60;;
1479;SDS011;732;51.698;4.886;2023-04-03T08:37:49;4.93;;;3.27;;
1479;SDS011;732;51.698;4.886;2023-04-03T08:40:18;7.60;;;4.10;;
1479;SDS011;732;51.698;4.886;2023-04-03T08:45:44;8.10;;;3.00;;
1479;SDS011;732;51.698;4.886;2023-04-03T08:48:20;5.67;;;2.80;;
1479;SDS011;732;51.698;4.886;2023-04-03T08:50:55;5.37;;;2.70;;
1479;SDS011;732;51.698;4.886;2023-04-03T08:53:29;5.00;;;3.30;;
1479;SDS011;732;51.698;4.886;2023-04-03T08:56:06;4.10;;;2.77;;
1479;SDS011;732;51.698;4.886;2023-04-03T08:58:41;6.10;;;2.90;;
1479;SDS011;732;51.698;4.886;2023-04-03T09:01:17;3.87;;;2.23;;
1479;SDS011;732;51.698;4.886;2023-04-03T09:03:52;8.17;;;3.07;;
1479;SDS011;732;51.698;4.886;2023-04-03T09:06:21;3.47;;;2.20;;
1479;SDS011;732;51.698;4.886;2023-04-03T09:08:58;2.80;;;2.10;;
1479;SDS011;732;51.698;4.886;2023-04-03T09:11:44;4.97;;;2.43;;
1479;SDS011;732;51.698;4.886;2023-04-03T09:14:22;4.10;;;2.00;;
1479;SDS011;732;51.698;4.886;2023-04-03T09:17:01;3.57;;;2.07;;
1479;SDS011;732;51.698;4.886;2023-04-03T09:19:41;4.83;;;2.07;;
1479;SDS011;732;51.698;4.886;2023-04-03T09:22:20;5.07;;;1.97;;
1479;SDS011;732;51.698;4.886;2023-04-03T09:24:55;4.20;;;2.10;;
1479;SDS011;732;51.698;4.886;2023-04-03T09:27:29;12.97;;;2.63;;
1479;SDS011;732;51.698;4.886;2023-04-03T09:29:58;4.00;;;2.17;;
1479;SDS011;732;51.698;4.886;2023-04-03T09:32:29;2.37;;;1.90;;
1479;SDS011;732;51.698;4.886;2023-04-03T09:35:06;4.50;;;2.03;;
1479;SDS011;732;51.698;4.886;2023-04-03T09:38:17;2.70;;;1.83;;
1479;SDS011;732;51.698;4.886;2023-04-03T09:40:48;4.43;;;2.00;;
1479;SDS011;732;51.698;4.886;2023-04-03T09:43:24;2.53;;;1.80;;
1479;SDS011;732;51.698;4.886;2023-04-03T09:48:55;2.27;;;1.73;;
1479;SDS011;732;51.698;4.886;2023-04-03T09:51:36;3.87;;;1.57;;
1479;SDS011;732;51.698;4.886;2023-04-03T09:57:06;1.83;;;1.40;;
1479;SDS011;732;51.698;4.886;2023-04-03T09:59:45;3.07;;;1.60;;
1479;SDS011;732;51.698;4.886;2023-04-03T10:02:29;4.40;;;1.77;;
1479;SDS011;732;51.698;4.886;2023-04-03T10:08:10;3.90;;;2.10;;
1479;SDS011;732;51.698;4.886;2023-04-03T10:11:06;2.30;;;1.30;;
1479;SDS011;732;51.698;4.886;2023-04-03T10:13:52;3.50;;;2.23;;
1479;SDS011;732;51.698;4.886;2023-04-03T10:16:27;3.93;;;1.47;;
1479;SDS011;732;51.698;4.886;2023-04-03T10:19:28;3.50;;;1.63;;
1479;SDS011;732;51.698;4.886;2023-04-03T10:22:09;1.67;;;1.23;;
1479;SDS011;732;51.698;4.886;2023-04-03T10:24:54;5.30;;;1.43;;
1479;SDS011;732;51.698;4.886;2023-04-03T10:27:37;1.57;;;1.20;;
1479;SDS011;732;51.698;4.886;2023-04-03T10:33:30;1.67;;;1.20;;
1479;SDS011;732;51.698;4.886;2023-04-03T10:36:19;3.37;;;1.30;;
1479;SDS011;732;51.698;4.886;2023-04-03T10:39:00;2.20;;;1.67;;
1479;SDS011;732;51.698;4.886;2023-04-03T10:41:42;1.83;;;1.27;;
1479;SDS011;732;51.698;4.886;2023-04-03T10:44:42;2.60;;;1.30;;
1479;SDS011;732;51.698;4.886;2023-04-03T10:47:47;1.77;;;1.30;;
1479;SDS011;732;51.698;4.886;2023-04-03T10:50:31;1.90;;;1.60;;
1479;SDS011;732;51.698;4.886;2023-04-03T10:53:18;6.60;;;2.10;;
1479;SDS011;732;51.698;4.886;2023-04-03T10:56:01;3.70;;;1.77;;
1479;SDS011;732;51.698;4.886;2023-04-03T10:58:40;1.50;;;1.20;;
1479;SDS011;732;51.698;4.886;2023-04-03T11:01:13;4.83;;;1.60;;
1479;SDS011;732;51.698;4.886;2023-04-03T11:03:47;2.37;;;1.33;;
1479;SDS011;732;51.698;4.886;2023-04-03T11:06:21;1.87;;;1.30;;
1479;SDS011;732;51.698;4.886;2023-04-03T11:08:55;2.70;;;1.10;;
1479;SDS011;732;51.698;4.886;2023-04-03T11:11:30;1.80;;;1.13;;
1479;SDS011;732;51.698;4.886;2023-04-03T11:14:05;1.77;;;1.07;;
1479;SDS011;732;51.698;4.886;2023-04-03T11:16:43;1.43;;;1.17;;
1479;SDS011;732;51.698;4.886;2023-04-03T11:19:20;2.07;;;1.10;;
1479;SDS011;732;51.698;4.886;2023-04-03T11:22:00;1.83;;;1.27;;
1479;SDS011;732;51.698;4.886;2023-04-03T11:24:36;3.43;;;1.00;;
1479;SDS011;732;51.698;4.886;2023-04-03T11:27:10;5.33;;;1.20;;
1479;SDS011;732;51.698;4.886;2023-04-03T11:29:46;1.97;;;0.97;;
1479;SDS011;732;51.698;4.886;2023-04-03T11:32:26;1.43;;;1.10;;
1479;SDS011;732;51.698;4.886;2023-04-03T11:35:17;1.37;;;1.00;;
1479;SDS011;732;51.698;4.886;2023-04-03T11:37:47;1.93;;;1.20;;
1479;SDS011;732;51.698;4.886;2023-04-03T11:40:20;4.87;;;1.20;;
1479;SDS011;732;51.698;4.886;2023-04-03T11:42:54;1.97;;;0.93;;
1479;SDS011;732;51.698;4.886;2023-04-03T11:45:34;1.83;;;1.00;;
1479;SDS011;732;51.698;4.886;2023-04-03T11:48:06;1.17;;;0.90;;
1479;SDS011;732;51.698;4.886;2023-04-03T11:51:39;1.93;;;1.00;;
1479;SDS011;732;51.698;4.886;2023-04-03T12:06:47;1.10;;;0.80;;
1479;SDS011;732;51.698;4.886;2023-04-03T12:12:58;2.07;;;1.00;;
1479;SDS011;732;51.698;4.886;2023-04-03T12:24:39;1.57;;;1.13;;
1479;SDS011;732;51.698;4.886;2023-04-03T12:27:18;2.30;;;1.10;;
1479;SDS011;732;51.698;4.886;2023-04-03T12:30:00;1.77;;;1.13;;
1479;SDS011;732;51.698;4.886;2023-04-03T12:33:04;4.30;;;1.30;;
1479;SDS011;732;51.698;4.886;2023-04-03T12:35:51;1.60;;;1.10;;
1479;SDS011;732;51.698;4.886;2023-04-03T12:38:44;4.03;;;0.97;;
1479;SDS011;732;51.698;4.886;2023-04-03T12:41:43;1.97;;;0.90;;
1479;SDS011;732;51.698;4.886;2023-04-03T12:44:33;3.50;;;1.20;;
1479;SDS011;732;51.698;4.886;2023-04-03T12:47:26;1.60;;;1.10;;
1479;SDS011;732;51.698;4.886;2023-04-03T12:49:59;2.23;;;1.20;;
1479;SDS011;732;51.698;4.886;2023-04-03T12:52:33;2.97;;;1.23;;
1479;SDS011;732;51.698;4.886;2023-04-03T12:55:14;1.70;;;1.20;;
1479;SDS011;732;51.698;4.886;2023-04-03T12:57:44;2.23;;;1.23;;
1479;SDS011;732;51.698;4.886;2023-04-03T13:00:27;3.40;;;1.10;;
1479;SDS011;732;51.698;4.886;2023-04-03T13:03:06;1.47;;;1.20;;
1479;SDS011;732;51.698;4.886;2023-04-03T13:05:53;2.63;;;1.20;;
1479;SDS011;732;51.698;4.886;2023-04-03T13:08:26;2.90;;;1.33;;
1479;SDS011;732;51.698;4.886;2023-04-03T13:10:55;2.03;;;1.20;;
1479;SDS011;732;51.698;4.886;2023-04-03T13:13:29;1.97;;;1.30;;
1479;SDS011;732;51.698;4.886;2023-04-03T13:15:57;2.40;;;1.20;;
1479;SDS011;732;51.698;4.886;2023-04-03T13:18:28;3.40;;;1.20;;
1479;SDS011;732;51.698;4.886;2023-04-03T13:21:01;4.67;;;1.60;;
1479;SDS011;732;51.698;4.886;2023-04-03T13:23:35;3.17;;;1.50;;
1479;SDS011;732;51.698;4.886;2023-04-03T13:26:07;3.73;;;1.50;;
1479;SDS011;732;51.698;4.886;2023-04-03T13:28:36;3.67;;;1.30;;
1479;SDS011;732;51.698;4.886;2023-04-03T13:31:08;4.03;;;1.70;;
1479;SDS011;732;51.698;4.886;2023-04-03T13:33:52;3.00;;;1.50;;
1479;SDS011;732;51.698;4.886;2023-04-03T13:36:26;4.93;;;1.60;;
1479;SDS011;732;51.698;4.886;2023-04-03T13:39:02;2.50;;;1.40;;
1479;SDS011;732;51.698;4.886;2023-04-03T13:41:35;4.13;;;1.40;;
1479;SDS011;732;51.698;4.886;2023-04-03T13:44:17;2.70;;;1.47;;
1479;SDS011;732;51.698;4.886;2023-04-03T13:46:57;4.70;;;1.57;;
1479;SDS011;732;51.698;4.886;2023-04-03T13:49:31;3.83;;;1.50;;
1479;SDS011;732;51.698;4.886;2023-04-03T13:52:17;4.67;;;1.60;;
1479;SDS011;732;51.698;4.886;2023-04-03T13:54:59;1.80;;;1.30;;
1479;SDS011;732;51.698;4.886;2023-04-03T13:57:35;2.73;;;1.67;;
1479;SDS011;732;51.698;4.886;2023-04-03T14:00:18;2.90;;;1.70;;
1479;SDS011;732;51.698;4.886;2023-04-03T14:02:56;3.77;;;1.40;;
1479;SDS011;732;51.698;4.886;2023-04-03T14:05:25;2.03;;;1.63;;
1479;SDS011;732;51.698;4.886;2023-04-03T14:07:53;3.63;;;1.50;;
1479;SDS011;732;51.698;4.886;2023-04-03T14:10:24;2.30;;;1.33;;
1479;SDS011;732;51.698;4.886;2023-04-03T14:12:53;3.20;;;1.87;;
1479;SDS011;732;51.698;4.886;2023-04-03T14:15:26;2.17;;;1.60;;
1479;SDS011;732;51.698;4.886;2023-04-03T14:17:56;5.10;;;1.87;;
1479;SDS011;732;51.698;4.886;2023-04-03T14:20:28;3.23;;;1.80;;
1479;SDS011;732;51.698;4.886;2023-04-03T14:22:57;2.30;;;1.97;;
1479;SDS011;732;51.698;4.886;2023-04-03T14:25:28;2.87;;;1.80;;
1479;SDS011;732;51.698;4.886;2023-04-03T14:27:56;2.50;;;1.47;;
1479;SDS011;732;51.698;4.886;2023-04-03T14:30:27;2.40;;;1.57;;
1479;SDS011;732;51.698;4.886;2023-04-03T14:32:58;4.37;;;1.90;;
1479;SDS011;732;51.698;4.886;2023-04-03T14:35:27;2.90;;;1.83;;
1479;SDS011;732;51.698;4.886;2023-04-03T14:37:56;2.90;;;1.80;;
1479;SDS011;732;51.698;4.886;2023-04-03T14:40:26;3.00;;;1.60;;
1479;SDS011;732;51.698;4.886;2023-04-03T14:42:57;4.00;;;2.50;;
1479;SDS011;732;51.698;4.886;2023-04-03T14:45:26;2.80;;;1.60;;
1479;SDS011;732;51.698;4.886;2023-04-03T14:47:55;2.37;;;2.10;;
1479;SDS011;732;51.698;4.886;2023-04-03T14:50:26;6.87;;;2.50;;
1479;SDS011;732;51.698;4.886;2023-04-03T14:52:56;5.80;;;2.10;;
1479;SDS011;732;51.698;4.886;2023-04-03T14:55:28;3.53;;;2.37;;
1479;SDS011;732;51.698;4.886;2023-04-03T14:57:57;4.33;;;1.80;;
1479;SDS011;732;51.698;4.886;2023-04-03T15:00:25;5.30;;;1.90;;
1479;SDS011;732;51.698;4.886;2023-04-03T15:02:54;4.20;;;2.10;;
1479;SDS011;732;51.698;4.886;2023-04-03T15:05:23;3.10;;;1.60;;
1479;SDS011;732;51.698;4.886;2023-04-03T15:07:53;4.47;;;1.70;;
1479;SDS011;732;51.698;4.886;2023-04-03T15:10:27;2.83;;;1.87;;
1479;SDS011;732;51.698;4.886;2023-04-03T15:12:59;2.43;;;1.83;;
1479;SDS011;732;51.698;4.886;2023-04-03T15:15:28;4.20;;;1.80;;
1479;SDS011;732;51.698;4.886;2023-04-03T15:17:57;2.40;;;1.67;;
1479;SDS011;732;51.698;4.886;2023-04-03T15:20:27;3.97;;;2.10;;
1479;SDS011;732;51.698;4.886;2023-04-03T15:22:59;9.40;;;2.30;;
1479;SDS011;732;51.698;4.886;2023-04-03T15:25:29;2.43;;;1.60;;
1479;SDS011;732;51.698;4.886;2023-04-03T15:27:59;4.47;;;2.07;;
1479;SDS011;732;51.698;4.886;2023-04-03T15:30:27;4.10;;;2.13;;
1479;SDS011;732;51.698;4.886;2023-04-03T15:32:56;2.90;;;2.00;;
1479;SDS011;732;51.698;4.886;2023-04-03T15:35:25;2.37;;;1.87;;
1479;SDS011;732;51.698;4.886;2023-04-03T15:37:53;4.73;;;2.13;;
1479;SDS011;732;51.698;4.886;2023-04-03T15:40:22;4.03;;;1.90;;
1479;SDS011;732;51.698;4.886;2023-04-03T15:42:51;2.97;;;1.70;;
1479;SDS011;732;51.698;4.886;2023-04-03T15:45:20;4.07;;;2.00;;
1479;SDS011;732;51.698;4.886;2023-04-03T15:47:48;2.13;;;1.80;;
1479;SDS011;732;51.698;4.886;2023-04-03T15:50:18;3.67;;;1.90;;
1479;SDS011;732;51.698;4.886;2023-04-03T15:52:48;2.90;;;1.80;;
1479;SDS011;732;51.698;4.886;2023-04-03T15:55:20;4.37;;;1.80;;
1479;SDS011;732;51.698;4.886;2023-04-03T15:57:49;4.10;;;2.40;;
1479;SDS011;732;51.698;4.886;2023-04-03T16:00:20;3.93;;;1.77;;
1479;SDS011;732;51.698;4.886;2023-04-03T16:02:50;5.17;;;1.60;;
1479;SDS011;732;51.698;4.886;2023-04-03T16:05:23;3.40;;;2.10;;
1479;SDS011;732;51.698;4.886;2023-04-03T16:07:52;4.00;;;1.70;;
1479;SDS011;732;51.698;4.886;2023-04-03T16:19:00;4.20;;;2.17;;
1479;SDS011;732;51.698;4.886;2023-04-03T16:26:19;2.43;;;1.77;;
1479;SDS011;732;51.698;4.886;2023-04-03T16:28:48;6.23;;;1.97;;
1479;SDS011;732;51.698;4.886;2023-04-03T16:31:16;4.70;;;1.70;;
1479;SDS011;732;51.698;4.886;2023-04-03T16:33:45;4.23;;;2.07;;
1479;SDS011;732;51.698;4.886;2023-04-03T16:36:15;3.37;;;1.97;;
1479;SDS011;732;51.698;4.886;2023-04-03T16:38:44;3.20;;;2.10;;
1479;SDS011;732;51.698;4.886;2023-04-03T16:41:12;3.20;;;1.67;;
1479;SDS011;732;51.698;4.886;2023-04-03T16:43:40;2.73;;;2.07;;
1479;SDS011;732;51.698;4.886;2023-04-03T16:46:09;3.30;;;1.90;;
1479;SDS011;732;51.698;4.886;2023-04-03T16:48:37;4.87;;;2.20;;
1479;SDS011;732;51.698;4.886;2023-04-03T16:51:09;3.43;;;2.03;;
1479;SDS011;732;51.698;4.886;2023-04-03T16:53:40;7.60;;;2.23;;
1479;SDS011;732;51.698;4.886;2023-04-03T16:56:09;2.40;;;1.87;;